<?xml version="1.0" encoding="UTF-8" standalone="no" ?>
<gpx xmlns="http://www.topografix.com/GPX/1/1" xmlns:xsi="http://www.w3.org/2001/XMLSchema-instance" xsi:schemaLocation="http://www.topografix.com/GPX/1/1 http://www.topografix.com/GPX/1/1/gpx.xsd" version="1.1" creator="VisuGPX - https://www.visugpx.com">
  <metadata>
    <name>BRC Rando douce autour de Tigery</name>
    <desc><![CDATA[Effectuée avec Bernard le 3 septembre 

Cueillette de pommes dans l’allée royale ]]></desc>
  </metadata>
  <wpt lat="48.63844" lon="2.50508">
    <ele>84</ele>
    <name><![CDATA[Point de passage 1]]></name>
    <type><![CDATA[GENERIC]]></type>
  </wpt>
  <wpt lat="48.63808" lon="2.505">
    <ele>85</ele>
    <name><![CDATA[Point de passage 2]]></name>
    <type><![CDATA[GENERIC]]></type>
  </wpt>
  <trk>
    <name><![CDATA[BRC Rando douce autour de Tigery ]]></name>
    <trkseg>
      <trkpt lat="48.63844" lon="2.50508">
        <ele>84</ele>
        <time>2026-09-03T11:52:00.000Z</time>
      </trkpt>
      <trkpt lat="48.63825" lon="2.50529">
        <ele>85</ele>
        <time>2026-09-03T11:53:07.000Z</time>
      </trkpt>
      <trkpt lat="48.63803" lon="2.50518">
        <ele>88</ele>
        <time>2026-09-03T11:53:32.000Z</time>
      </trkpt>
      <trkpt lat="48.6378" lon="2.50512">
        <ele>86</ele>
        <time>2026-09-03T11:53:56.000Z</time>
      </trkpt>
      <trkpt lat="48.63757" lon="2.50497">
        <ele>89</ele>
        <time>2026-09-03T11:54:23.000Z</time>
      </trkpt>
      <trkpt lat="48.63741" lon="2.50474">
        <ele>86</ele>
        <time>2026-09-03T11:54:46.000Z</time>
      </trkpt>
      <trkpt lat="48.63727" lon="2.50446">
        <ele>86</ele>
        <time>2026-09-03T11:55:07.000Z</time>
      </trkpt>
      <trkpt lat="48.63716" lon="2.50414">
        <ele>84</ele>
        <time>2026-09-03T11:55:31.000Z</time>
      </trkpt>
      <trkpt lat="48.63704" lon="2.50383">
        <ele>85</ele>
        <time>2026-09-03T11:55:54.000Z</time>
      </trkpt>
      <trkpt lat="48.63686" lon="2.50404">
        <ele>84</ele>
        <time>2026-09-03T11:56:31.000Z</time>
      </trkpt>
      <trkpt lat="48.63676" lon="2.50435">
        <ele>85</ele>
        <time>2026-09-03T11:56:55.000Z</time>
      </trkpt>
      <trkpt lat="48.63663" lon="2.50463">
        <ele>84</ele>
        <time>2026-09-03T11:57:18.000Z</time>
      </trkpt>
      <trkpt lat="48.63651" lon="2.50493">
        <ele>85</ele>
        <time>2026-09-03T11:57:47.000Z</time>
      </trkpt>
      <trkpt lat="48.63638" lon="2.50521">
        <ele>84</ele>
        <time>2026-09-03T11:58:10.000Z</time>
      </trkpt>
      <trkpt lat="48.63623" lon="2.50547">
        <ele>86</ele>
        <time>2026-09-03T11:58:31.000Z</time>
      </trkpt>
      <trkpt lat="48.63606" lon="2.50571">
        <ele>85</ele>
        <time>2026-09-03T11:58:53.000Z</time>
      </trkpt>
      <trkpt lat="48.63591" lon="2.50596">
        <ele>85</ele>
        <time>2026-09-03T11:59:15.000Z</time>
      </trkpt>
      <trkpt lat="48.63578" lon="2.50624">
        <ele>87</ele>
        <time>2026-09-03T11:59:41.000Z</time>
      </trkpt>
      <trkpt lat="48.63569" lon="2.50658">
        <ele>87</ele>
        <time>2026-09-03T12:00:06.000Z</time>
      </trkpt>
      <trkpt lat="48.63576" lon="2.50691">
        <ele>86</ele>
        <time>2026-09-03T12:00:46.000Z</time>
      </trkpt>
      <trkpt lat="48.63593" lon="2.50716">
        <ele>87</ele>
        <time>2026-09-03T12:01:11.000Z</time>
      </trkpt>
      <trkpt lat="48.63608" lon="2.50742">
        <ele>86</ele>
        <time>2026-09-03T12:01:35.000Z</time>
      </trkpt>
      <trkpt lat="48.63593" lon="2.50767">
        <ele>91</ele>
        <time>2026-09-03T12:01:59.000Z</time>
      </trkpt>
      <trkpt lat="48.63571" lon="2.50762">
        <ele>87</ele>
        <time>2026-09-03T12:02:23.000Z</time>
      </trkpt>
      <trkpt lat="48.63552" lon="2.50786">
        <ele>90</ele>
        <time>2026-09-03T12:02:54.000Z</time>
      </trkpt>
      <trkpt lat="48.63543" lon="2.50818">
        <ele>88</ele>
        <time>2026-09-03T12:03:21.000Z</time>
      </trkpt>
      <trkpt lat="48.63536" lon="2.50852">
        <ele>86</ele>
        <time>2026-09-03T12:03:44.000Z</time>
      </trkpt>
      <trkpt lat="48.6353" lon="2.50885">
        <ele>87</ele>
        <time>2026-09-03T12:04:08.000Z</time>
      </trkpt>
      <trkpt lat="48.63525" lon="2.50919">
        <ele>86</ele>
        <time>2026-09-03T12:04:32.000Z</time>
      </trkpt>
      <trkpt lat="48.63538" lon="2.50946">
        <ele>87</ele>
        <time>2026-09-03T12:05:08.000Z</time>
      </trkpt>
      <trkpt lat="48.6356" lon="2.50956">
        <ele>86</ele>
        <time>2026-09-03T12:05:33.000Z</time>
      </trkpt>
      <trkpt lat="48.63583" lon="2.50965">
        <ele>89</ele>
        <time>2026-09-03T12:05:55.000Z</time>
      </trkpt>
      <trkpt lat="48.63604" lon="2.50979">
        <ele>85</ele>
        <time>2026-09-03T12:06:19.000Z</time>
      </trkpt>
      <trkpt lat="48.63625" lon="2.50994">
        <ele>86</ele>
        <time>2026-09-03T12:06:49.000Z</time>
      </trkpt>
      <trkpt lat="48.63645" lon="2.5101">
        <ele>86</ele>
        <time>2026-09-03T12:07:14.000Z</time>
      </trkpt>
      <trkpt lat="48.63667" lon="2.5102">
        <ele>86</ele>
        <time>2026-09-03T12:07:38.000Z</time>
      </trkpt>
      <trkpt lat="48.63685" lon="2.51042">
        <ele>86</ele>
        <time>2026-09-03T12:08:02.000Z</time>
      </trkpt>
      <trkpt lat="48.63699" lon="2.51069">
        <ele>85</ele>
        <time>2026-09-03T12:08:26.000Z</time>
      </trkpt>
      <trkpt lat="48.63717" lon="2.51089">
        <ele>86</ele>
        <time>2026-09-03T12:08:52.000Z</time>
      </trkpt>
      <trkpt lat="48.63739" lon="2.51076">
        <ele>85</ele>
        <time>2026-09-03T12:09:30.000Z</time>
      </trkpt>
      <trkpt lat="48.63757" lon="2.51057">
        <ele>87</ele>
        <time>2026-09-03T12:10:00.000Z</time>
      </trkpt>
      <trkpt lat="48.6378" lon="2.51063">
        <ele>85</ele>
        <time>2026-09-03T12:10:35.000Z</time>
      </trkpt>
      <trkpt lat="48.63801" lon="2.51077">
        <ele>84</ele>
        <time>2026-09-03T12:11:11.000Z</time>
      </trkpt>
      <trkpt lat="48.63824" lon="2.51071">
        <ele>83</ele>
        <time>2026-09-03T12:11:38.000Z</time>
      </trkpt>
      <trkpt lat="48.6384" lon="2.51046">
        <ele>85</ele>
        <time>2026-09-03T12:12:18.000Z</time>
      </trkpt>
      <trkpt lat="48.63862" lon="2.51038">
        <ele>86</ele>
        <time>2026-09-03T12:12:46.000Z</time>
      </trkpt>
      <trkpt lat="48.63885" lon="2.51039">
        <ele>84</ele>
        <time>2026-09-03T12:13:21.000Z</time>
      </trkpt>
      <trkpt lat="48.63907" lon="2.51052">
        <ele>84</ele>
        <time>2026-09-03T12:13:45.000Z</time>
      </trkpt>
      <trkpt lat="48.63924" lon="2.51075">
        <ele>83</ele>
        <time>2026-09-03T12:14:17.000Z</time>
      </trkpt>
      <trkpt lat="48.63936" lon="2.51105">
        <ele>86</ele>
        <time>2026-09-03T12:14:46.000Z</time>
      </trkpt>
      <trkpt lat="48.63943" lon="2.51137">
        <ele>88</ele>
        <time>2026-09-03T12:15:13.000Z</time>
      </trkpt>
      <trkpt lat="48.6395" lon="2.51172">
        <ele>86</ele>
        <time>2026-09-03T12:15:42.000Z</time>
      </trkpt>
      <trkpt lat="48.63956" lon="2.51205">
        <ele>86</ele>
        <time>2026-09-03T12:16:11.000Z</time>
      </trkpt>
      <trkpt lat="48.63964" lon="2.51238">
        <ele>87</ele>
        <time>2026-09-03T12:16:39.000Z</time>
      </trkpt>
      <trkpt lat="48.6397" lon="2.51272">
        <ele>86</ele>
        <time>2026-09-03T12:17:07.000Z</time>
      </trkpt>
      <trkpt lat="48.63978" lon="2.51304">
        <ele>85</ele>
        <time>2026-09-03T12:17:34.000Z</time>
      </trkpt>
      <trkpt lat="48.63984" lon="2.51337">
        <ele>86</ele>
        <time>2026-09-03T12:17:58.000Z</time>
      </trkpt>
      <trkpt lat="48.6398" lon="2.5137">
        <ele>86</ele>
        <time>2026-09-03T12:18:25.000Z</time>
      </trkpt>
      <trkpt lat="48.63985" lon="2.51404">
        <ele>86</ele>
        <time>2026-09-03T12:18:49.000Z</time>
      </trkpt>
      <trkpt lat="48.63997" lon="2.51435">
        <ele>83</ele>
        <time>2026-09-03T12:19:18.000Z</time>
      </trkpt>
      <trkpt lat="48.64015" lon="2.51455">
        <ele>83</ele>
        <time>2026-09-03T12:19:51.000Z</time>
      </trkpt>
      <trkpt lat="48.64021" lon="2.51489">
        <ele>82</ele>
        <time>2026-09-03T12:20:17.000Z</time>
      </trkpt>
      <trkpt lat="48.64028" lon="2.51522">
        <ele>83</ele>
        <time>2026-09-03T12:20:44.000Z</time>
      </trkpt>
      <trkpt lat="48.64019" lon="2.51555">
        <ele>79</ele>
        <time>2026-09-03T12:25:09.000Z</time>
      </trkpt>
      <trkpt lat="48.63996" lon="2.51555">
        <ele>81</ele>
        <time>2026-09-03T12:25:35.000Z</time>
      </trkpt>
      <trkpt lat="48.63974" lon="2.51555">
        <ele>84</ele>
        <time>2026-09-03T12:26:19.000Z</time>
      </trkpt>
      <trkpt lat="48.6395" lon="2.51555">
        <ele>83</ele>
        <time>2026-09-03T12:26:48.000Z</time>
      </trkpt>
      <trkpt lat="48.6393" lon="2.51572">
        <ele>83</ele>
        <time>2026-09-03T12:27:13.000Z</time>
      </trkpt>
      <trkpt lat="48.6391" lon="2.51588">
        <ele>82</ele>
        <time>2026-09-03T12:27:39.000Z</time>
      </trkpt>
      <trkpt lat="48.63887" lon="2.51584">
        <ele>83</ele>
        <time>2026-09-03T12:28:03.000Z</time>
      </trkpt>
      <trkpt lat="48.63865" lon="2.51572">
        <ele>84</ele>
        <time>2026-09-03T12:28:35.000Z</time>
      </trkpt>
      <trkpt lat="48.63851" lon="2.516">
        <ele>84</ele>
        <time>2026-09-03T12:29:00.000Z</time>
      </trkpt>
      <trkpt lat="48.63829" lon="2.51609">
        <ele>84</ele>
        <time>2026-09-03T12:29:27.000Z</time>
      </trkpt>
      <trkpt lat="48.63807" lon="2.51619">
        <ele>84</ele>
        <time>2026-09-03T12:29:51.000Z</time>
      </trkpt>
      <trkpt lat="48.63785" lon="2.51624">
        <ele>83</ele>
        <time>2026-09-03T12:30:17.000Z</time>
      </trkpt>
      <trkpt lat="48.63762" lon="2.51629">
        <ele>83</ele>
        <time>2026-09-03T12:30:42.000Z</time>
      </trkpt>
      <trkpt lat="48.6374" lon="2.51636">
        <ele>84</ele>
        <time>2026-09-03T12:31:09.000Z</time>
      </trkpt>
      <trkpt lat="48.63729" lon="2.51667">
        <ele>87</ele>
        <time>2026-09-03T12:32:43.000Z</time>
      </trkpt>
      <trkpt lat="48.63737" lon="2.51699">
        <ele>86</ele>
        <time>2026-09-03T12:33:08.000Z</time>
      </trkpt>
      <trkpt lat="48.63746" lon="2.51731">
        <ele>86</ele>
        <time>2026-09-03T12:33:31.000Z</time>
      </trkpt>
      <trkpt lat="48.63753" lon="2.51765">
        <ele>87</ele>
        <time>2026-09-03T12:33:55.000Z</time>
      </trkpt>
      <trkpt lat="48.63761" lon="2.51797">
        <ele>85</ele>
        <time>2026-09-03T12:34:19.000Z</time>
      </trkpt>
      <trkpt lat="48.63769" lon="2.51831">
        <ele>87</ele>
        <time>2026-09-03T12:34:43.000Z</time>
      </trkpt>
      <trkpt lat="48.63776" lon="2.51864">
        <ele>86</ele>
        <time>2026-09-03T12:35:07.000Z</time>
      </trkpt>
      <trkpt lat="48.63783" lon="2.51896">
        <ele>87</ele>
        <time>2026-09-03T12:35:30.000Z</time>
      </trkpt>
      <trkpt lat="48.63792" lon="2.51928">
        <ele>87</ele>
        <time>2026-09-03T12:35:55.000Z</time>
      </trkpt>
      <trkpt lat="48.63799" lon="2.5196">
        <ele>87</ele>
        <time>2026-09-03T12:36:19.000Z</time>
      </trkpt>
      <trkpt lat="48.6381" lon="2.51991">
        <ele>89</ele>
        <time>2026-09-03T12:36:44.000Z</time>
      </trkpt>
      <trkpt lat="48.63822" lon="2.52022">
        <ele>88</ele>
        <time>2026-09-03T12:37:08.000Z</time>
      </trkpt>
      <trkpt lat="48.63836" lon="2.5205">
        <ele>88</ele>
        <time>2026-09-03T12:37:32.000Z</time>
      </trkpt>
      <trkpt lat="48.6385" lon="2.52077">
        <ele>88</ele>
        <time>2026-09-03T12:37:58.000Z</time>
      </trkpt>
      <trkpt lat="48.63865" lon="2.52103">
        <ele>88</ele>
        <time>2026-09-03T12:38:23.000Z</time>
      </trkpt>
      <trkpt lat="48.63878" lon="2.52131">
        <ele>87</ele>
        <time>2026-09-03T12:38:47.000Z</time>
      </trkpt>
      <trkpt lat="48.63894" lon="2.52156">
        <ele>88</ele>
        <time>2026-09-03T12:39:13.000Z</time>
      </trkpt>
      <trkpt lat="48.63909" lon="2.52183">
        <ele>86</ele>
        <time>2026-09-03T12:39:39.000Z</time>
      </trkpt>
      <trkpt lat="48.63916" lon="2.52215">
        <ele>86</ele>
        <time>2026-09-03T12:40:06.000Z</time>
      </trkpt>
      <trkpt lat="48.63911" lon="2.52249">
        <ele>87</ele>
        <time>2026-09-03T12:40:33.000Z</time>
      </trkpt>
      <trkpt lat="48.63906" lon="2.52283">
        <ele>85</ele>
        <time>2026-09-03T12:41:00.000Z</time>
      </trkpt>
      <trkpt lat="48.63899" lon="2.52316">
        <ele>87</ele>
        <time>2026-09-03T12:41:26.000Z</time>
      </trkpt>
      <trkpt lat="48.63893" lon="2.52349">
        <ele>87</ele>
        <time>2026-09-03T12:41:53.000Z</time>
      </trkpt>
      <trkpt lat="48.63886" lon="2.52382">
        <ele>87</ele>
        <time>2026-09-03T12:42:15.000Z</time>
      </trkpt>
      <trkpt lat="48.63881" lon="2.52416">
        <ele>88</ele>
        <time>2026-09-03T12:42:41.000Z</time>
      </trkpt>
      <trkpt lat="48.63873" lon="2.52449">
        <ele>89</ele>
        <time>2026-09-03T12:43:03.000Z</time>
      </trkpt>
      <trkpt lat="48.63868" lon="2.52484">
        <ele>88</ele>
        <time>2026-09-03T12:43:27.000Z</time>
      </trkpt>
      <trkpt lat="48.63861" lon="2.52517">
        <ele>89</ele>
        <time>2026-09-03T12:43:51.000Z</time>
      </trkpt>
      <trkpt lat="48.63856" lon="2.52551">
        <ele>88</ele>
        <time>2026-09-03T12:44:14.000Z</time>
      </trkpt>
      <trkpt lat="48.6385" lon="2.52584">
        <ele>87</ele>
        <time>2026-09-03T12:44:38.000Z</time>
      </trkpt>
      <trkpt lat="48.63843" lon="2.52618">
        <ele>88</ele>
        <time>2026-09-03T12:45:04.000Z</time>
      </trkpt>
      <trkpt lat="48.63836" lon="2.52651">
        <ele>88</ele>
        <time>2026-09-03T12:45:28.000Z</time>
      </trkpt>
      <trkpt lat="48.63831" lon="2.52684">
        <ele>88</ele>
        <time>2026-09-03T12:45:59.000Z</time>
      </trkpt>
      <trkpt lat="48.63845" lon="2.52711">
        <ele>87</ele>
        <time>2026-09-03T12:47:47.000Z</time>
      </trkpt>
      <trkpt lat="48.63867" lon="2.52704">
        <ele>87</ele>
        <time>2026-09-03T12:50:15.000Z</time>
      </trkpt>
      <trkpt lat="48.63889" lon="2.52708">
        <ele>85</ele>
        <time>2026-09-03T12:51:39.000Z</time>
      </trkpt>
      <trkpt lat="48.63913" lon="2.52704">
        <ele>86</ele>
        <time>2026-09-03T12:52:11.000Z</time>
      </trkpt>
      <trkpt lat="48.63936" lon="2.52704">
        <ele>85</ele>
        <time>2026-09-03T12:53:00.000Z</time>
      </trkpt>
      <trkpt lat="48.63958" lon="2.52703">
        <ele>84</ele>
        <time>2026-09-03T12:53:55.000Z</time>
      </trkpt>
      <trkpt lat="48.63982" lon="2.52702">
        <ele>84</ele>
        <time>2026-09-03T12:54:19.000Z</time>
      </trkpt>
      <trkpt lat="48.64005" lon="2.52695">
        <ele>84</ele>
        <time>2026-09-03T12:54:50.000Z</time>
      </trkpt>
      <trkpt lat="48.64027" lon="2.52693">
        <ele>83</ele>
        <time>2026-09-03T12:55:15.000Z</time>
      </trkpt>
      <trkpt lat="48.64051" lon="2.52691">
        <ele>83</ele>
        <time>2026-09-03T12:56:00.000Z</time>
      </trkpt>
      <trkpt lat="48.64073" lon="2.5269">
        <ele>84</ele>
        <time>2026-09-03T12:56:25.000Z</time>
      </trkpt>
      <trkpt lat="48.64097" lon="2.5269">
        <ele>83</ele>
        <time>2026-09-03T12:56:52.000Z</time>
      </trkpt>
      <trkpt lat="48.6412" lon="2.52697">
        <ele>83</ele>
        <time>2026-09-03T12:57:20.000Z</time>
      </trkpt>
      <trkpt lat="48.64142" lon="2.52694">
        <ele>82</ele>
        <time>2026-09-03T12:57:48.000Z</time>
      </trkpt>
      <trkpt lat="48.64166" lon="2.52693">
        <ele>83</ele>
        <time>2026-09-03T12:58:16.000Z</time>
      </trkpt>
      <trkpt lat="48.64189" lon="2.5269">
        <ele>82</ele>
        <time>2026-09-03T12:58:41.000Z</time>
      </trkpt>
      <trkpt lat="48.64212" lon="2.5269">
        <ele>85</ele>
        <time>2026-09-03T12:59:06.000Z</time>
      </trkpt>
      <trkpt lat="48.64235" lon="2.5269">
        <ele>87</ele>
        <time>2026-09-03T12:59:31.000Z</time>
      </trkpt>
      <trkpt lat="48.64258" lon="2.52686">
        <ele>84</ele>
        <time>2026-09-03T12:59:57.000Z</time>
      </trkpt>
      <trkpt lat="48.64235" lon="2.52684">
        <ele>83</ele>
        <time>2026-09-03T13:02:09.000Z</time>
      </trkpt>
      <trkpt lat="48.6421" lon="2.52688">
        <ele>80</ele>
        <time>2026-09-03T13:02:28.000Z</time>
      </trkpt>
      <trkpt lat="48.64188" lon="2.52689">
        <ele>80</ele>
        <time>2026-09-03T13:02:44.000Z</time>
      </trkpt>
      <trkpt lat="48.64164" lon="2.5269">
        <ele>80</ele>
        <time>2026-09-03T13:03:02.000Z</time>
      </trkpt>
      <trkpt lat="48.64141" lon="2.52692">
        <ele>80</ele>
        <time>2026-09-03T13:03:17.000Z</time>
      </trkpt>
      <trkpt lat="48.64117" lon="2.52692">
        <ele>82</ele>
        <time>2026-09-03T13:03:33.000Z</time>
      </trkpt>
      <trkpt lat="48.64095" lon="2.52687">
        <ele>81</ele>
        <time>2026-09-03T13:03:48.000Z</time>
      </trkpt>
      <trkpt lat="48.64118" lon="2.52692">
        <ele>79</ele>
        <time>2026-09-03T13:05:58.000Z</time>
      </trkpt>
      <trkpt lat="48.64141" lon="2.52692">
        <ele>81</ele>
        <time>2026-09-03T13:06:18.000Z</time>
      </trkpt>
      <trkpt lat="48.64164" lon="2.52691">
        <ele>82</ele>
        <time>2026-09-03T13:06:39.000Z</time>
      </trkpt>
      <trkpt lat="48.64187" lon="2.5269">
        <ele>80</ele>
        <time>2026-09-03T13:07:00.000Z</time>
      </trkpt>
      <trkpt lat="48.6421" lon="2.52689">
        <ele>81</ele>
        <time>2026-09-03T13:07:19.000Z</time>
      </trkpt>
      <trkpt lat="48.64234" lon="2.52685">
        <ele>84</ele>
        <time>2026-09-03T13:07:38.000Z</time>
      </trkpt>
      <trkpt lat="48.64257" lon="2.5269">
        <ele>87</ele>
        <time>2026-09-03T13:07:58.000Z</time>
      </trkpt>
      <trkpt lat="48.64278" lon="2.52706">
        <ele>83</ele>
        <time>2026-09-03T13:09:29.000Z</time>
      </trkpt>
      <trkpt lat="48.64288" lon="2.52737">
        <ele>82</ele>
        <time>2026-09-03T13:09:56.000Z</time>
      </trkpt>
      <trkpt lat="48.64305" lon="2.52761">
        <ele>84</ele>
        <time>2026-09-03T13:10:23.000Z</time>
      </trkpt>
      <trkpt lat="48.64318" lon="2.52789">
        <ele>83</ele>
        <time>2026-09-03T13:10:46.000Z</time>
      </trkpt>
      <trkpt lat="48.64332" lon="2.52816">
        <ele>86</ele>
        <time>2026-09-03T13:11:13.000Z</time>
      </trkpt>
      <trkpt lat="48.64347" lon="2.52842">
        <ele>87</ele>
        <time>2026-09-03T13:11:40.000Z</time>
      </trkpt>
      <trkpt lat="48.64362" lon="2.52867">
        <ele>83</ele>
        <time>2026-09-03T13:12:05.000Z</time>
      </trkpt>
      <trkpt lat="48.64376" lon="2.52895">
        <ele>87</ele>
        <time>2026-09-03T13:12:30.000Z</time>
      </trkpt>
      <trkpt lat="48.64399" lon="2.52892">
        <ele>84</ele>
        <time>2026-09-03T13:13:06.000Z</time>
      </trkpt>
      <trkpt lat="48.64418" lon="2.52871">
        <ele>87</ele>
        <time>2026-09-03T13:13:36.000Z</time>
      </trkpt>
      <trkpt lat="48.64435" lon="2.52848">
        <ele>86</ele>
        <time>2026-09-03T13:13:58.000Z</time>
      </trkpt>
      <trkpt lat="48.64454" lon="2.52829">
        <ele>85</ele>
        <time>2026-09-03T13:14:22.000Z</time>
      </trkpt>
      <trkpt lat="48.6447" lon="2.52805">
        <ele>87</ele>
        <time>2026-09-03T13:14:46.000Z</time>
      </trkpt>
      <trkpt lat="48.6449" lon="2.52786">
        <ele>86</ele>
        <time>2026-09-03T13:15:06.000Z</time>
      </trkpt>
      <trkpt lat="48.64507" lon="2.52764">
        <ele>85</ele>
        <time>2026-09-03T13:15:30.000Z</time>
      </trkpt>
      <trkpt lat="48.64526" lon="2.52745">
        <ele>86</ele>
        <time>2026-09-03T13:15:51.000Z</time>
      </trkpt>
      <trkpt lat="48.64544" lon="2.52723">
        <ele>87</ele>
        <time>2026-09-03T13:16:11.000Z</time>
      </trkpt>
      <trkpt lat="48.64561" lon="2.52699">
        <ele>84</ele>
        <time>2026-09-03T13:16:34.000Z</time>
      </trkpt>
      <trkpt lat="48.64578" lon="2.52676">
        <ele>84</ele>
        <time>2026-09-03T13:16:56.000Z</time>
      </trkpt>
      <trkpt lat="48.64594" lon="2.52652">
        <ele>83</ele>
        <time>2026-09-03T13:17:17.000Z</time>
      </trkpt>
      <trkpt lat="48.646" lon="2.52619">
        <ele>83</ele>
        <time>2026-09-03T13:17:57.000Z</time>
      </trkpt>
      <trkpt lat="48.64588" lon="2.5259">
        <ele>85</ele>
        <time>2026-09-03T13:18:27.000Z</time>
      </trkpt>
      <trkpt lat="48.64571" lon="2.52567">
        <ele>85</ele>
        <time>2026-09-03T13:18:51.000Z</time>
      </trkpt>
      <trkpt lat="48.64557" lon="2.52538">
        <ele>85</ele>
        <time>2026-09-03T13:19:16.000Z</time>
      </trkpt>
      <trkpt lat="48.64544" lon="2.52509">
        <ele>84</ele>
        <time>2026-09-03T13:19:41.000Z</time>
      </trkpt>
      <trkpt lat="48.64531" lon="2.52481">
        <ele>81</ele>
        <time>2026-09-03T13:20:12.000Z</time>
      </trkpt>
      <trkpt lat="48.6452" lon="2.5245">
        <ele>79</ele>
        <time>2026-09-03T13:20:37.000Z</time>
      </trkpt>
      <trkpt lat="48.6452" lon="2.52415">
        <ele>76</ele>
        <time>2026-09-03T13:21:05.000Z</time>
      </trkpt>
      <trkpt lat="48.64531" lon="2.52384">
        <ele>75</ele>
        <time>2026-09-03T13:21:31.000Z</time>
      </trkpt>
      <trkpt lat="48.64534" lon="2.5235">
        <ele>77</ele>
        <time>2026-09-03T13:21:53.000Z</time>
      </trkpt>
      <trkpt lat="48.64528" lon="2.52316">
        <ele>75</ele>
        <time>2026-09-03T13:22:19.000Z</time>
      </trkpt>
      <trkpt lat="48.6453" lon="2.52282">
        <ele>77</ele>
        <time>2026-09-03T13:22:58.000Z</time>
      </trkpt>
      <trkpt lat="48.6453" lon="2.52246">
        <ele>74</ele>
        <time>2026-09-03T13:23:27.000Z</time>
      </trkpt>
      <trkpt lat="48.64542" lon="2.52216">
        <ele>75</ele>
        <time>2026-09-03T13:23:54.000Z</time>
      </trkpt>
      <trkpt lat="48.64539" lon="2.52181">
        <ele>74</ele>
        <time>2026-09-03T13:25:47.000Z</time>
      </trkpt>
      <trkpt lat="48.64529" lon="2.5215">
        <ele>75</ele>
        <time>2026-09-03T13:26:20.000Z</time>
      </trkpt>
      <trkpt lat="48.64522" lon="2.52116">
        <ele>73</ele>
        <time>2026-09-03T13:26:48.000Z</time>
      </trkpt>
      <trkpt lat="48.64524" lon="2.52082">
        <ele>75</ele>
        <time>2026-09-03T13:27:26.000Z</time>
      </trkpt>
      <trkpt lat="48.64515" lon="2.52049">
        <ele>76</ele>
        <time>2026-09-03T13:27:53.000Z</time>
      </trkpt>
      <trkpt lat="48.64513" lon="2.52015">
        <ele>74</ele>
        <time>2026-09-03T13:28:18.000Z</time>
      </trkpt>
      <trkpt lat="48.64512" lon="2.51979">
        <ele>73</ele>
        <time>2026-09-03T13:28:41.000Z</time>
      </trkpt>
      <trkpt lat="48.64517" lon="2.51945">
        <ele>73</ele>
        <time>2026-09-03T13:29:06.000Z</time>
      </trkpt>
      <trkpt lat="48.64521" lon="2.5191">
        <ele>75</ele>
        <time>2026-09-03T13:29:30.000Z</time>
      </trkpt>
      <trkpt lat="48.64517" lon="2.51877">
        <ele>73</ele>
        <time>2026-09-03T13:30:07.000Z</time>
      </trkpt>
      <trkpt lat="48.64519" lon="2.51842">
        <ele>70</ele>
        <time>2026-09-03T13:30:32.000Z</time>
      </trkpt>
      <trkpt lat="48.64518" lon="2.51807">
        <ele>72</ele>
        <time>2026-09-03T13:30:59.000Z</time>
      </trkpt>
      <trkpt lat="48.64519" lon="2.51772">
        <ele>72</ele>
        <time>2026-09-03T13:31:23.000Z</time>
      </trkpt>
      <trkpt lat="48.64526" lon="2.51739">
        <ele>72</ele>
        <time>2026-09-03T13:32:47.000Z</time>
      </trkpt>
      <trkpt lat="48.64528" lon="2.51704">
        <ele>72</ele>
        <time>2026-09-03T13:33:16.000Z</time>
      </trkpt>
      <trkpt lat="48.64525" lon="2.5167">
        <ele>71</ele>
        <time>2026-09-03T13:33:43.000Z</time>
      </trkpt>
      <trkpt lat="48.64525" lon="2.51635">
        <ele>73</ele>
        <time>2026-09-03T13:34:07.000Z</time>
      </trkpt>
      <trkpt lat="48.64536" lon="2.51603">
        <ele>74</ele>
        <time>2026-09-03T13:34:34.000Z</time>
      </trkpt>
      <trkpt lat="48.64552" lon="2.51575">
        <ele>70</ele>
        <time>2026-09-03T13:35:01.000Z</time>
      </trkpt>
      <trkpt lat="48.64571" lon="2.51556">
        <ele>73</ele>
        <time>2026-09-03T13:35:29.000Z</time>
      </trkpt>
      <trkpt lat="48.64591" lon="2.51539">
        <ele>72</ele>
        <time>2026-09-03T13:36:07.000Z</time>
      </trkpt>
      <trkpt lat="48.64615" lon="2.51544">
        <ele>73</ele>
        <time>2026-09-03T13:36:30.000Z</time>
      </trkpt>
      <trkpt lat="48.64638" lon="2.51541">
        <ele>74</ele>
        <time>2026-09-03T13:37:00.000Z</time>
      </trkpt>
      <trkpt lat="48.64657" lon="2.51523">
        <ele>73</ele>
        <time>2026-09-03T13:37:24.000Z</time>
      </trkpt>
      <trkpt lat="48.64676" lon="2.51503">
        <ele>70</ele>
        <time>2026-09-03T13:37:50.000Z</time>
      </trkpt>
      <trkpt lat="48.64695" lon="2.51484">
        <ele>70</ele>
        <time>2026-09-03T13:38:17.000Z</time>
      </trkpt>
      <trkpt lat="48.64716" lon="2.51468">
        <ele>69</ele>
        <time>2026-09-03T13:38:41.000Z</time>
      </trkpt>
      <trkpt lat="48.64738" lon="2.51457">
        <ele>71</ele>
        <time>2026-09-03T13:39:15.000Z</time>
      </trkpt>
      <trkpt lat="48.64754" lon="2.51434">
        <ele>70</ele>
        <time>2026-09-03T13:40:01.000Z</time>
      </trkpt>
      <trkpt lat="48.6477" lon="2.51409">
        <ele>72</ele>
        <time>2026-09-03T13:40:44.000Z</time>
      </trkpt>
      <trkpt lat="48.64779" lon="2.51378">
        <ele>69</ele>
        <time>2026-09-03T13:41:06.000Z</time>
      </trkpt>
      <trkpt lat="48.64779" lon="2.51344">
        <ele>70</ele>
        <time>2026-09-03T13:41:33.000Z</time>
      </trkpt>
      <trkpt lat="48.64777" lon="2.51309">
        <ele>68</ele>
        <time>2026-09-03T13:42:01.000Z</time>
      </trkpt>
      <trkpt lat="48.64777" lon="2.51274">
        <ele>66</ele>
        <time>2026-09-03T13:42:46.000Z</time>
      </trkpt>
      <trkpt lat="48.64782" lon="2.51241">
        <ele>67</ele>
        <time>2026-09-03T13:43:16.000Z</time>
      </trkpt>
      <trkpt lat="48.64794" lon="2.51213">
        <ele>68</ele>
        <time>2026-09-03T13:43:54.000Z</time>
      </trkpt>
      <trkpt lat="48.64809" lon="2.51187">
        <ele>66</ele>
        <time>2026-09-03T13:44:24.000Z</time>
      </trkpt>
      <trkpt lat="48.64812" lon="2.51153">
        <ele>66</ele>
        <time>2026-09-03T13:44:52.000Z</time>
      </trkpt>
      <trkpt lat="48.64795" lon="2.51129">
        <ele>69</ele>
        <time>2026-09-03T13:45:34.000Z</time>
      </trkpt>
      <trkpt lat="48.64783" lon="2.51098">
        <ele>68</ele>
        <time>2026-09-03T13:45:57.000Z</time>
      </trkpt>
      <trkpt lat="48.64774" lon="2.51066">
        <ele>67</ele>
        <time>2026-09-03T13:46:25.000Z</time>
      </trkpt>
      <trkpt lat="48.64761" lon="2.51037">
        <ele>69</ele>
        <time>2026-09-03T13:46:51.000Z</time>
      </trkpt>
      <trkpt lat="48.64751" lon="2.51005">
        <ele>68</ele>
        <time>2026-09-03T13:47:14.000Z</time>
      </trkpt>
      <trkpt lat="48.64735" lon="2.50979">
        <ele>68</ele>
        <time>2026-09-03T13:47:36.000Z</time>
      </trkpt>
      <trkpt lat="48.64731" lon="2.50946">
        <ele>67</ele>
        <time>2026-09-03T13:47:58.000Z</time>
      </trkpt>
      <trkpt lat="48.6473" lon="2.50911">
        <ele>66</ele>
        <time>2026-09-03T13:48:21.000Z</time>
      </trkpt>
      <trkpt lat="48.64737" lon="2.50878">
        <ele>67</ele>
        <time>2026-09-03T13:48:52.000Z</time>
      </trkpt>
      <trkpt lat="48.64752" lon="2.50851">
        <ele>66</ele>
        <time>2026-09-03T13:49:21.000Z</time>
      </trkpt>
      <trkpt lat="48.64751" lon="2.50816">
        <ele>64</ele>
        <time>2026-09-03T13:49:56.000Z</time>
      </trkpt>
      <trkpt lat="48.64731" lon="2.50799">
        <ele>64</ele>
        <time>2026-09-03T13:53:26.000Z</time>
      </trkpt>
      <trkpt lat="48.64751" lon="2.50782">
        <ele>66</ele>
        <time>2026-09-03T13:59:18.000Z</time>
      </trkpt>
      <trkpt lat="48.64753" lon="2.50747">
        <ele>66</ele>
        <time>2026-09-03T13:59:50.000Z</time>
      </trkpt>
      <trkpt lat="48.64746" lon="2.50714">
        <ele>64</ele>
        <time>2026-09-03T14:00:16.000Z</time>
      </trkpt>
      <trkpt lat="48.64738" lon="2.50679">
        <ele>66</ele>
        <time>2026-09-03T14:00:42.000Z</time>
      </trkpt>
      <trkpt lat="48.64736" lon="2.50645">
        <ele>65</ele>
        <time>2026-09-03T14:01:32.000Z</time>
      </trkpt>
      <trkpt lat="48.64731" lon="2.50611">
        <ele>67</ele>
        <time>2026-09-03T14:01:53.000Z</time>
      </trkpt>
      <trkpt lat="48.64715" lon="2.50586">
        <ele>66</ele>
        <time>2026-09-03T14:02:23.000Z</time>
      </trkpt>
      <trkpt lat="48.64693" lon="2.50573">
        <ele>64</ele>
        <time>2026-09-03T14:02:42.000Z</time>
      </trkpt>
      <trkpt lat="48.6467" lon="2.50565">
        <ele>64</ele>
        <time>2026-09-03T14:03:02.000Z</time>
      </trkpt>
      <trkpt lat="48.6465" lon="2.50548">
        <ele>65</ele>
        <time>2026-09-03T14:03:22.000Z</time>
      </trkpt>
      <trkpt lat="48.64635" lon="2.50522">
        <ele>65</ele>
        <time>2026-09-03T14:03:42.000Z</time>
      </trkpt>
      <trkpt lat="48.64612" lon="2.50533">
        <ele>65</ele>
        <time>2026-09-03T14:04:05.000Z</time>
      </trkpt>
      <trkpt lat="48.64594" lon="2.50555">
        <ele>65</ele>
        <time>2026-09-03T14:04:28.000Z</time>
      </trkpt>
      <trkpt lat="48.64583" lon="2.50585">
        <ele>64</ele>
        <time>2026-09-03T14:04:50.000Z</time>
      </trkpt>
      <trkpt lat="48.64566" lon="2.50608">
        <ele>64</ele>
        <time>2026-09-03T14:05:11.000Z</time>
      </trkpt>
      <trkpt lat="48.64544" lon="2.50615">
        <ele>65</ele>
        <time>2026-09-03T14:05:33.000Z</time>
      </trkpt>
      <trkpt lat="48.64521" lon="2.5061">
        <ele>66</ele>
        <time>2026-09-03T14:05:53.000Z</time>
      </trkpt>
      <trkpt lat="48.64498" lon="2.50602">
        <ele>66</ele>
        <time>2026-09-03T14:06:14.000Z</time>
      </trkpt>
      <trkpt lat="48.64476" lon="2.50592">
        <ele>68</ele>
        <time>2026-09-03T14:06:34.000Z</time>
      </trkpt>
      <trkpt lat="48.64452" lon="2.50586">
        <ele>70</ele>
        <time>2026-09-03T14:06:56.000Z</time>
      </trkpt>
      <trkpt lat="48.6443" lon="2.50583">
        <ele>68</ele>
        <time>2026-09-03T14:07:19.000Z</time>
      </trkpt>
      <trkpt lat="48.64406" lon="2.50585">
        <ele>69</ele>
        <time>2026-09-03T14:07:39.000Z</time>
      </trkpt>
      <trkpt lat="48.64384" lon="2.50577">
        <ele>73</ele>
        <time>2026-09-03T14:08:11.000Z</time>
      </trkpt>
      <trkpt lat="48.6436" lon="2.50575">
        <ele>74</ele>
        <time>2026-09-03T14:08:53.000Z</time>
      </trkpt>
      <trkpt lat="48.64338" lon="2.50579">
        <ele>74</ele>
        <time>2026-09-03T14:09:19.000Z</time>
      </trkpt>
      <trkpt lat="48.64315" lon="2.5058">
        <ele>76</ele>
        <time>2026-09-03T14:09:44.000Z</time>
      </trkpt>
      <trkpt lat="48.64293" lon="2.50589">
        <ele>76</ele>
        <time>2026-09-03T14:10:17.000Z</time>
      </trkpt>
      <trkpt lat="48.64271" lon="2.50596">
        <ele>77</ele>
        <time>2026-09-03T14:10:41.000Z</time>
      </trkpt>
      <trkpt lat="48.64252" lon="2.50615">
        <ele>78</ele>
        <time>2026-09-03T14:11:03.000Z</time>
      </trkpt>
      <trkpt lat="48.64231" lon="2.5063">
        <ele>79</ele>
        <time>2026-09-03T14:11:26.000Z</time>
      </trkpt>
      <trkpt lat="48.64212" lon="2.50647">
        <ele>80</ele>
        <time>2026-09-03T14:11:49.000Z</time>
      </trkpt>
      <trkpt lat="48.64192" lon="2.50664">
        <ele>81</ele>
        <time>2026-09-03T14:12:11.000Z</time>
      </trkpt>
      <trkpt lat="48.64172" lon="2.5068">
        <ele>81</ele>
        <time>2026-09-03T14:12:33.000Z</time>
      </trkpt>
      <trkpt lat="48.64149" lon="2.50686">
        <ele>82</ele>
        <time>2026-09-03T14:12:57.000Z</time>
      </trkpt>
      <trkpt lat="48.64127" lon="2.50694">
        <ele>82</ele>
        <time>2026-09-03T14:13:19.000Z</time>
      </trkpt>
      <trkpt lat="48.64106" lon="2.50708">
        <ele>85</ele>
        <time>2026-09-03T14:13:41.000Z</time>
      </trkpt>
      <trkpt lat="48.64086" lon="2.50723">
        <ele>86</ele>
        <time>2026-09-03T14:14:04.000Z</time>
      </trkpt>
      <trkpt lat="48.64064" lon="2.50736">
        <ele>86</ele>
        <time>2026-09-03T14:14:27.000Z</time>
      </trkpt>
      <trkpt lat="48.64043" lon="2.50749">
        <ele>85</ele>
        <time>2026-09-03T14:14:50.000Z</time>
      </trkpt>
      <trkpt lat="48.64022" lon="2.50765">
        <ele>84</ele>
        <time>2026-09-03T14:15:13.000Z</time>
      </trkpt>
      <trkpt lat="48.64" lon="2.50772">
        <ele>83</ele>
        <time>2026-09-03T14:15:34.000Z</time>
      </trkpt>
      <trkpt lat="48.6398" lon="2.5079">
        <ele>85</ele>
        <time>2026-09-03T14:16:01.000Z</time>
      </trkpt>
      <trkpt lat="48.63966" lon="2.50762">
        <ele>85</ele>
        <time>2026-09-03T14:17:10.000Z</time>
      </trkpt>
      <trkpt lat="48.63954" lon="2.50733">
        <ele>84</ele>
        <time>2026-09-03T14:17:34.000Z</time>
      </trkpt>
      <trkpt lat="48.63944" lon="2.50702">
        <ele>83</ele>
        <time>2026-09-03T14:17:59.000Z</time>
      </trkpt>
      <trkpt lat="48.63934" lon="2.50672">
        <ele>85</ele>
        <time>2026-09-03T14:18:21.000Z</time>
      </trkpt>
      <trkpt lat="48.63927" lon="2.50639">
        <ele>84</ele>
        <time>2026-09-03T14:18:43.000Z</time>
      </trkpt>
      <trkpt lat="48.63914" lon="2.50611">
        <ele>84</ele>
        <time>2026-09-03T14:19:07.000Z</time>
      </trkpt>
      <trkpt lat="48.63897" lon="2.50589">
        <ele>87</ele>
        <time>2026-09-03T14:19:32.000Z</time>
      </trkpt>
      <trkpt lat="48.63884" lon="2.50561">
        <ele>85</ele>
        <time>2026-09-03T14:19:55.000Z</time>
      </trkpt>
      <trkpt lat="48.63866" lon="2.5054">
        <ele>85</ele>
        <time>2026-09-03T14:20:21.000Z</time>
      </trkpt>
      <trkpt lat="48.63843" lon="2.50529">
        <ele>85</ele>
        <time>2026-09-03T14:20:46.000Z</time>
      </trkpt>
      <trkpt lat="48.63831" lon="2.505">
        <ele>84</ele>
        <time>2026-09-03T14:21:36.000Z</time>
      </trkpt>
      <trkpt lat="48.63808" lon="2.505">
        <ele>85</ele>
        <time>2026-09-03T14:23:47.000Z</time>
      </trkpt>
    </trkseg>
  </trk>
</gpx>